Time;durP1;ratioP1;P1;durP2;ratioP2;P2;SDS_P1;SDS_P2;PMS_P1;PMS_P2;Temp;Humidity;BMP_temperature;BMP_pressure;BME280_temperature;BME280_humidity;BME280_pressure;Samples;Min_cycle;Max_cycle;Signal;HPM_P1;HPM_P2
2023/10/07 00:02:51;;;;;;;281.55;268.05;;;17.40;93.30;;;;;;5052991;28;20311;-74
2023/10/07 00:05:20;;;;;;;301.40;286.80;;;17.40;93.40;;;;;;5045015;28;20052;-74
2023/10/07 00:07:46;;;;;;;336.67;320.40;;;17.40;93.30;;;;;;5039789;28;20272;-73
2023/10/07 00:10:15;;;;;;;369.87;350.60;;;17.40;93.00;;;;;;5028774;28;20829;-74
2023/10/07 00:12:42;;;;;;;371.70;353.67;;;17.50;92.80;;;;;;5040456;28;20049;-74
2023/10/07 00:15:11;;;;;;;335.43;318.70;;;17.50;92.90;;;;;;5037563;28;20294;-74
2023/10/07 00:17:43;;;;;;;322.23;306.60;;;17.50;92.90;;;;;;5043702;28;20282;-74
2023/10/07 00:20:11;;;;;;;333.50;316.80;;;17.50;92.70;;;;;;5042832;28;20305;-74
2023/10/07 00:22:40;;;;;;;326.27;310.40;;;17.50;92.80;;;;;;5024436;28;20314;-73
2023/10/07 00:25:12;;;;;;;313.60;299.10;;;17.50;93.10;;;;;;5027032;28;20362;-73
2023/10/07 00:27:38;;;;;;;376.80;358.73;;;17.50;93.30;;;;;;5043195;28;20402;-73
2023/10/07 00:30:14;;;;;;;326.97;311.17;;;17.50;93.30;;;;;;5049937;28;20274;-74
2023/10/07 00:32:39;;;;;;;391.63;372.23;;;17.50;93.50;;;;;;5046056;28;20329;-74
2023/10/07 00:35:07;;;;;;;528.53;496.13;;;17.50;93.60;;;;;;5041728;28;20278;-73
2023/10/07 00:37:37;;;;;;;345.43;328.30;;;17.50;93.70;;;;;;5030105;28;20043;-74
2023/10/07 00:40:30;;;;;;;381.20;361.97;;;17.60;93.60;;;;;;5029323;28;20070;-75
2023/10/07 00:42:57;;;;;;;369.87;351.27;;;17.60;93.40;;;;;;5044791;28;20276;-74
2023/10/07 00:45:25;;;;;;;515.07;484.10;;;17.60;93.30;;;;;;5044904;28;20619;-74
2023/10/07 00:47:52;;;;;;;340.07;323.77;;;17.60;93.30;;;;;;5026180;28;20033;-73
2023/10/07 00:50:22;;;;;;;343.63;327.20;;;17.70;93.00;;;;;;5044365;28;20040;-73
2023/10/07 00:52:58;;;;;;;395.33;374.73;;;17.70;92.90;;;;;;5043829;28;20041;-74
2023/10/07 00:55:35;;;;;;;407.63;386.37;;;17.70;93.00;;;;;;5023781;28;20123;-74
2023/10/07 00:58:07;;;;;;;383.17;363.53;;;17.70;92.70;;;;;;5045209;28;20047;-73
2023/10/07 01:00:42;;;;;;;310.90;296.20;;;17.70;92.90;;;;;;5027032;28;20035;-73
2023/10/07 01:08:27;;;;;;;399.13;379.80;;;17.60;93.30;;;;;;5043420;28;20408;-73
2023/10/07 01:11:06;;;;;;;397.23;377.00;;;17.60;93.40;;;;;;5027355;28;20806;-74
2023/10/07 01:13:35;;;;;;;416.70;396.23;;;17.50;93.50;;;;;;5028208;28;20043;-74
2023/10/07 01:16:07;;;;;;;374.73;356.73;;;17.60;93.70;;;;;;5029232;28;20033;-73
2023/10/07 01:18:38;;;;;;;377.10;358.67;;;17.50;93.60;;;;;;5043639;28;20029;-73
2023/10/07 01:21:14;;;;;;;347.47;330.60;;;17.50;93.60;;;;;;5043395;28;20093;-74
2023/10/07 01:23:44;;;;;;;359.93;342.17;;;17.50;93.80;;;;;;5038115;28;20766;-74
2023/10/07 01:26:21;;;;;;;508.77;482.97;;;17.50;93.80;;;;;;5040339;28;20040;-74
2023/10/07 01:28:49;;;;;;;363.70;346.27;;;17.50;93.90;;;;;;5042173;28;20549;-73
2023/10/07 01:31:18;;;;;;;393.30;373.13;;;17.40;94.00;;;;;;5028618;28;20075;-74
2023/10/07 01:33:47;;;;;;;375.10;357.30;;;17.40;94.20;;;;;;5027392;28;20340;-74
2023/10/07 01:36:20;;;;;;;358.63;341.23;;;17.40;94.40;;;;;;5025942;28;20041;-73
2023/10/07 01:38:52;;;;;;;331.90;315.70;;;17.40;94.30;;;;;;5023581;28;20081;-73
2023/10/07 01:41:27;;;;;;;356.93;339.77;;;17.40;94.70;;;;;;5028290;28;20036;-74
2023/10/07 01:43:59;;;;;;;384.08;364.88;;;17.40;94.60;;;;;;5042974;28;20369;-73
2023/10/07 01:46:32;;;;;;;379.30;360.60;;;17.40;94.70;;;;;;5025305;28;20690;-73
2023/10/07 01:49:12;;;;;;;391.13;371.47;;;17.40;94.90;;;;;;5023058;28;20292;-73
2023/10/07 01:51:44;;;;;;;381.77;361.00;;;17.40;94.90;;;;;;5026156;28;20349;-74
2023/10/07 01:54:11;;;;;;;346.77;330.20;;;17.30;95.00;;;;;;5045679;28;20095;-73
2023/10/07 01:56:40;;;;;;;362.17;343.80;;;17.30;94.90;;;;;;5043445;28;20292;-74
2023/10/07 02:01:42;;;;;;;356.20;338.93;;;17.40;95.00;;;;;;5042912;28;20283;-74
2023/10/07 02:04:26;;;;;;;387.03;367.93;;;17.40;94.90;;;;;;5045288;28;20037;-73
2023/10/07 02:06:56;;;;;;;317.92;302.95;;;17.30;95.00;;;;;;5033333;28;20298;-74
2023/10/07 02:09:26;;;;;;;386.57;368.00;;;17.30;95.10;;;;;;5047545;28;20053;-74
2023/10/07 02:11:56;;;;;;;357.63;340.33;;;17.30;95.00;;;;;;5026606;28;20303;-74
2023/10/07 02:14:25;;;;;;;412.17;391.47;;;17.30;95.10;;;;;;5018403;28;20691;-73
2023/10/07 02:16:52;;;;;;;423.90;402.10;;;17.30;95.20;;;;;;5047066;28;20279;-74
2023/10/07 02:19:29;;;;;;;456.23;432.90;;;17.30;95.20;;;;;;5044195;28;20045;-74
2023/10/07 02:22:07;;;;;;;334.40;317.67;;;17.30;95.40;;;;;;5029204;28;20401;-74
2023/10/07 02:24:41;;;;;;;409.47;388.37;;;17.30;95.30;;;;;;5032484;28;20353;-74
2023/10/07 02:27:18;;;;;;;394.00;374.90;;;17.30;95.40;;;;;;5042057;28;20774;-73
2023/10/07 02:29:44;;;;;;;397.80;375.80;;;17.30;95.40;;;;;;5052168;28;20469;-73
2023/10/07 02:32:14;;;;;;;339.60;323.17;;;17.30;95.50;;;;;;5050963;28;20366;-73
2023/10/07 02:34:53;;;;;;;354.47;337.70;;;17.30;95.60;;;;;;5035017;28;20292;-73
2023/10/07 02:37:26;;;;;;;430.47;408.17;;;17.30;95.70;;;;;;5033908;28;20297;-74
2023/10/07 02:40:00;;;;;;;368.53;351.03;;;17.30;95.70;;;;;;5053104;28;20299;-74
2023/10/07 02:42:28;;;;;;;343.20;326.90;;;17.30;95.70;;;;;;5022708;28;20112;-74
2023/10/07 02:45:01;;;;;;;350.90;334.27;;;17.30;95.80;;;;;;5040608;28;20072;-73
2023/10/07 02:47:33;;;;;;;425.47;403.83;;;17.40;95.70;;;;;;5048463;28;20311;-74
2023/10/07 02:50:02;;;;;;;404.03;384.53;;;17.40;95.80;;;;;;5034089;28;20302;-74
2023/10/07 02:52:46;;;;;;;385.63;366.23;;;17.40;95.90;;;;;;5030038;28;20283;-74
2023/10/07 02:57:42;;;;;;;393.97;374.33;;;17.40;96.00;;;;;;5047461;28;20300;-74
2023/10/07 03:00:18;;;;;;;404.03;383.17;;;17.40;95.80;;;;;;5044674;28;20822;-75
2023/10/07 03:05:35;;;;;;;448.20;425.47;;;17.40;95.90;;;;;;5020835;28;20344;-74
2023/10/07 03:08:04;;;;;;;466.87;442.90;;;17.40;96.00;;;;;;5038715;28;20272;-74
2023/10/07 03:10:45;;;;;;;398.37;377.67;;;17.40;96.00;;;;;;5027721;28;20295;-73
2023/10/07 03:13:19;;;;;;;508.93;479.73;;;17.40;96.10;;;;;;5041075;28;20041;-74
2023/10/07 03:16:09;;;;;;;401.30;381.70;;;17.40;96.10;;;;;;5030759;28;20279;-74
2023/10/07 03:18:33;;;;;;;412.33;392.13;;;17.40;96.10;;;;;;5037880;28;20405;-74
2023/10/07 03:21:00;;;;;;;430.20;408.33;;;17.40;96.10;;;;;;5039905;28;20056;-74
2023/10/07 03:23:26;;;;;;;469.63;445.03;;;17.40;96.20;;;;;;5039460;28;20067;-74
2023/10/07 03:28:30;;;;;;;493.07;464.73;;;17.40;96.20;;;;;;5037819;28;20049;-74
2023/10/07 03:30:56;;;;;;;414.50;392.17;;;17.40;96.10;;;;;;5050014;28;20354;-76
2023/10/07 03:33:42;;;;;;;387.97;369.07;;;17.40;96.10;;;;;;5038416;28;20853;-74
2023/10/07 03:36:29;;;;;;;442.60;419.03;;;17.40;96.20;;;;;;5046710;28;20123;-74
2023/10/07 03:39:00;;;;;;;479.17;454.07;;;17.40;96.20;;;;;;5038026;28;20398;-74
2023/10/07 03:41:25;;;;;;;558.43;524.10;;;17.40;96.10;;;;;;5028644;28;20049;-74
2023/10/07 03:43:51;;;;;;;325.87;310.23;;;17.40;96.10;;;;;;5028276;28;20364;-74
2023/10/07 03:46:17;;;;;;;434.97;412.53;;;17.40;96.10;;;;;;5030145;28;20485;-75
2023/10/07 03:48:53;;;;;;;428.77;405.83;;;17.40;96.00;;;;;;5024499;28;20045;-75
2023/10/07 03:51:22;;;;;;;345.47;328.93;;;17.40;96.00;;;;;;5030123;28;20294;-75
2023/10/07 03:53:54;;;;;;;356.47;338.97;;;17.40;96.10;;;;;;5049082;28;20362;-74
2023/10/07 03:56:20;;;;;;;361.80;343.97;;;17.40;96.20;;;;;;5048468;28;20287;-74
2023/10/07 03:58:47;;;;;;;487.10;459.87;;;17.40;96.20;;;;;;5026678;28;20032;-74
2023/10/07 04:01:22;;;;;;;411.63;390.57;;;17.40;96.20;;;;;;5039975;28;20037;-74
2023/10/07 04:03:50;;;;;;;448.33;423.63;;;17.40;96.20;;;;;;5032713;28;20287;-75
2023/10/07 04:06:31;;;;;;;394.50;374.30;;;17.40;96.20;;;;;;5046908;28;20279;-74
2023/10/07 04:09:07;;;;;;;403.93;383.60;;;17.40;96.30;;;;;;5049620;28;20302;-74
2023/10/07 04:11:38;;;;;;;478.80;451.30;;;17.40;96.30;;;;;;5057289;28;20708;-75
2023/10/07 04:14:19;;;;;;;542.07;501.57;;;17.40;96.40;;;;;;5033828;28;20448;-74
2023/10/07 04:16:59;;;;;;;380.43;361.67;;;17.40;96.50;;;;;;5025586;28;20287;-74
2023/10/07 04:21:51;;;;;;;389.87;369.07;;;17.40;96.50;;;;;;5045089;28;20288;-74
2023/10/07 04:24:23;;;;;;;419.70;398.03;;;17.40;96.50;;;;;;5044878;28;20046;-73
2023/10/07 04:27:02;;;;;;;594.10;547.40;;;17.30;96.60;;;;;;5036191;28;20049;-72
2023/10/07 04:29:29;;;;;;;434.90;412.23;;;17.30;96.80;;;;;;5032870;28;20291;-72
2023/10/07 04:31:55;;;;;;;422.60;401.73;;;17.30;96.80;;;;;;5040338;28;20771;-72
2023/10/07 04:34:33;;;;;;;411.87;391.17;;;17.30;96.70;;;;;;5024875;28;20361;-72
2023/10/07 04:39:37;;;;;;;329.37;313.40;;;17.20;96.90;;;;;;5042274;28;20095;-73
2023/10/07 04:42:05;;;;;;;449.07;423.90;;;17.20;97.10;;;;;;5046366;28;20040;-75
2023/10/07 04:52:30;;;;;;;361.80;343.43;;;17.20;96.90;;;;;;5044931;28;20418;-74
2023/10/07 04:55:00;;;;;;;352.23;334.63;;;17.20;96.90;;;;;;5022463;28;20299;-75
2023/10/07 04:57:45;;;;;;;695.77;654.83;;;17.20;97.00;;;;;;5038919;28;20048;-73
2023/10/07 05:00:35;;;;;;;603.38;567.65;;;17.10;97.10;;;;;;5024800;28;20295;-74
2023/10/07 05:03:15;;;;;;;559.73;524.53;;;17.10;97.30;;;;;;5021381;28;20486;-74
2023/10/07 05:05:45;;;;;;;795.87;725.63;;;17.00;97.50;;;;;;5041394;28;20283;-74
2023/10/07 05:08:11;;;;;;;898.10;811.67;;;17.00;97.90;;;;;;5039425;28;20321;-74
2023/10/07 05:10:41;;;;;;;806.43;740.67;;;16.90;98.30;;;;;;5024837;28;20280;-73
2023/10/07 05:13:08;;;;;;;921.33;831.23;;;16.90;98.60;;;;;;5040415;28;20315;-74
2023/10/07 05:15:41;;;;;;;949.63;781.00;;;16.90;98.70;;;;;;5019529;28;20296;-74
2023/10/07 05:18:12;;;;;;;808.40;746.30;;;16.80;98.90;;;;;;5020681;28;20379;-74
2023/10/07 05:20:46;;;;;;;705.90;657.17;;;16.90;98.90;;;;;;5024750;28;20379;-74
2023/10/07 05:23:17;;;;;;;823.93;746.73;;;16.80;99.00;;;;;;5042529;28;20296;-74
2023/10/07 05:25:53;;;;;;;901.30;817.93;;;16.90;99.00;;;;;;5024674;28;20379;-74
2023/10/07 05:28:22;;;;;;;597.90;563.23;;;16.90;99.10;;;;;;5039081;28;20275;-74
2023/10/07 05:30:52;;;;;;;705.37;651.57;;;16.90;98.90;;;;;;5042578;28;20374;-75
2023/10/07 05:33:25;;;;;;;665.43;618.50;;;16.90;98.80;;;;;;5037840;28;20294;-73
2023/10/07 05:35:54;;;;;;;660.13;614.10;;;16.90;98.80;;;;;;5040930;28;20280;-73
2023/10/07 05:38:19;;;;;;;607.67;575.20;;;16.90;98.80;;;;;;5036129;28;20280;-73
2023/10/07 05:40:49;;;;;;;634.17;599.07;;;16.90;98.90;;;;;;5040609;28;20376;-73
2023/10/07 05:43:16;;;;;;;681.23;638.67;;;16.90;98.90;;;;;;5019153;28;20068;-74
2023/10/07 05:45:42;;;;;;;706.87;661.50;;;16.90;98.90;;;;;;5037542;28;20292;-74
2023/10/07 05:48:08;;;;;;;684.80;640.17;;;16.90;98.90;;;;;;5044357;28;21184;-74
2023/10/07 05:50:34;;;;;;;751.70;684.97;;;16.90;99.00;;;;;;5045474;28;20366;-74
2023/10/07 05:53:04;;;;;;;1254.20;843.20;;;16.90;99.00;;;;;;5028441;28;20106;-74
2023/10/07 05:55:33;;;;;;;827.87;757.17;;;16.90;99.00;;;;;;5036882;28;20295;-74
2023/10/07 05:58:02;;;;;;;704.47;662.13;;;16.90;98.80;;;;;;5041746;28;20291;-74
2023/10/07 06:00:31;;;;;;;758.27;704.93;;;16.90;99.00;;;;;;5048704;28;20305;-74
2023/10/07 06:03:05;;;;;;;848.93;772.97;;;16.90;98.70;;;;;;5041266;28;20286;-74
2023/10/07 06:05:33;;;;;;;849.80;774.70;;;16.90;98.60;;;;;;5043669;28;20340;-73
2023/10/07 06:08:00;;;;;;;620.40;585.83;;;16.90;98.50;;;;;;5051710;28;20416;-73
2023/10/07 06:10:28;;;;;;;700.90;650.57;;;17.00;98.50;;;;;;5029919;28;20348;-74
2023/10/07 06:12:54;;;;;;;607.87;572.20;;;17.00;98.40;;;;;;5042261;28;20326;-74
2023/10/07 06:15:21;;;;;;;771.70;708.50;;;17.00;98.50;;;;;;5028649;28;20044;-74
2023/10/07 06:17:46;;;;;;;812.33;737.83;;;17.00;98.50;;;;;;5052313;28;20076;-75
2023/10/07 06:20:15;;;;;;;720.10;668.70;;;17.00;98.40;;;;;;5044884;28;20401;-74
2023/10/07 06:22:48;;;;;;;860.13;778.20;;;17.00;98.60;;;;;;5045343;28;20257;-74
2023/10/07 06:25:17;;;;;;;665.50;627.67;;;17.00;98.60;;;;;;5048976;28;21035;-74
2023/10/07 06:27:43;;;;;;;840.30;749.23;;;17.00;98.80;;;;;;5029633;28;20459;-74
2023/10/07 06:30:21;;;;;;;635.50;600.90;;;16.90;99.10;;;;;;5049705;28;20364;-75
2023/10/07 06:32:55;;;;;;;603.40;570.87;;;16.90;99.00;;;;;;5048501;28;20349;-74
2023/10/07 06:35:25;;;;;;;660.33;619.07;;;16.90;99.20;;;;;;5032819;28;20274;-74
2023/10/07 06:37:52;;;;;;;604.73;571.40;;;16.90;99.00;;;;;;5043211;28;20272;-75
2023/10/07 06:40:25;;;;;;;660.37;621.13;;;16.90;98.90;;;;;;5047831;28;20425;-75
2023/10/07 06:42:52;;;;;;;759.10;695.40;;;16.90;98.90;;;;;;5045239;28;20627;-75
2023/10/07 06:45:20;;;;;;;792.87;711.00;;;16.90;98.80;;;;;;5046675;28;20373;-75
2023/10/07 06:47:46;;;;;;;592.70;557.37;;;16.90;98.90;;;;;;5042430;28;20275;-76
2023/10/07 06:50:27;;;;;;;765.50;709.83;;;17.00;98.70;;;;;;5042642;28;20372;-74
2023/10/07 06:52:55;;;;;;;1855.70;928.37;;;17.00;98.70;;;;;;5046311;28;20282;-72
2023/10/07 06:55:22;;;;;;;568.23;535.73;;;17.00;98.60;;;;;;5045156;28;20802;-72
2023/10/07 06:57:48;;;;;;;1084.57;763.43;;;17.00;98.30;;;;;;5046610;28;20302;-72
2023/10/07 07:00:25;;;;;;;696.63;650.33;;;17.00;98.20;;;;;;5049763;28;20299;-73
2023/10/07 07:02:57;;;;;;;567.37;537.33;;;17.10;98.20;;;;;;5045838;28;20194;-73
2023/10/07 07:05:24;;;;;;;642.43;601.90;;;17.10;98.10;;;;;;5031158;28;20370;-73
2023/10/07 07:07:52;;;;;;;1140.63;790.83;;;17.10;98.10;;;;;;5049066;28;20637;-73
2023/10/07 07:10:27;;;;;;;783.97;704.53;;;17.10;97.80;;;;;;5050913;28;20279;-73
2023/10/07 07:13:12;;;;;;;555.50;525.75;;;17.20;97.50;;;;;;5049465;28;20336;-73
2023/10/07 07:15:41;;;;;;;;;;;17.20;97.10;;;;;;5028185;28;20052;-73
2023/10/07 07:20:49;;;;;;;489.60;465.97;;;17.30;96.40;;;;;;5050521;28;20385;-74
2023/10/07 07:23:24;;;;;;;597.30;558.30;;;17.40;96.30;;;;;;5033314;28;20274;-73
2023/10/07 07:26:09;;;;;;;675.63;624.15;;;17.40;96.00;;;;;;5031351;28;20336;-73
2023/10/07 07:28:35;;;;;;;;;;;17.50;96.00;;;;;;5042023;28;20369;-74
2023/10/07 07:31:03;;;;;;;536.57;506.80;;;17.50;95.40;;;;;;5026789;28;19917;-74
2023/10/07 07:33:31;;;;;;;781.50;694.57;;;17.50;95.20;;;;;;5041272;28;20876;-74
2023/10/07 07:35:57;;;;;;;521.13;491.70;;;17.50;94.80;;;;;;5048489;28;20278;-73
2023/10/07 07:40:49;;;;;;;613.70;573.50;;;17.50;94.80;;;;;;5044210;28;20061;-74
2023/10/07 07:43:19;;;;;;;565.20;530.77;;;17.50;94.60;;;;;;5044868;28;20345;-73
2023/10/07 07:45:46;;;;;;;539.90;509.57;;;17.60;94.50;;;;;;5045311;28;20280;-73
2023/10/07 07:48:12;;;;;;;654.33;609.70;;;17.60;94.60;;;;;;5048209;28;20044;-74
2023/10/07 07:50:40;;;;;;;749.83;688.60;;;17.60;94.60;;;;;;5045889;28;20385;-74
2023/10/07 07:53:06;;;;;;;655.37;610.47;;;17.60;94.40;;;;;;5043731;28;20047;-74
2023/10/07 07:55:37;;;;;;;611.80;576.03;;;17.60;94.50;;;;;;5052011;28;20396;-73
2023/10/07 07:58:09;;;;;;;774.40;683.47;;;17.60;94.30;;;;;;5047424;28;20041;-73
2023/10/07 08:00:40;;;;;;;750.87;680.17;;;17.70;93.60;;;;;;5040711;28;20041;-73
2023/10/07 08:03:07;;;;;;;587.67;555.13;;;17.70;93.60;;;;;;5047515;28;20047;-74
2023/10/07 08:05:35;;;;;;;687.87;640.43;;;17.70;93.60;;;;;;5020670;28;20071;-73
2023/10/07 08:08:09;;;;;;;646.00;607.57;;;17.70;93.50;;;;;;5044055;28;20045;-73
2023/10/07 08:10:35;;;;;;;683.33;639.23;;;17.70;93.30;;;;;;5020665;28;20037;-73
2023/10/07 08:13:03;;;;;;;616.23;578.03;;;17.70;93.20;;;;;;5048866;28;20491;-73
2023/10/07 08:15:38;;;;;;;719.53;664.77;;;17.70;93.30;;;;;;5051986;28;20048;-74
2023/10/07 08:18:06;;;;;;;;;;;17.70;93.20;;;;;;5033010;28;20032;-74
2023/10/07 08:20:34;;;;;;;687.67;641.40;;;17.70;93.20;;;;;;5029826;28;20017;-73
2023/10/07 08:23:22;;;;;;;633.97;598.77;;;17.70;92.90;;;;;;5028561;28;20047;-73
2023/10/07 08:25:46;;;;;;;736.80;685.83;;;17.70;92.70;;;;;;5043291;28;20043;-73
2023/10/07 08:28:19;;;;;;;734.97;682.67;;;17.80;92.20;;;;;;5048707;28;20423;-73
2023/10/07 08:30:47;;;;;;;602.80;569.03;;;17.80;92.30;;;;;;5050705;28;20076;-73
2023/10/07 08:33:15;;;;;;;666.20;626.00;;;17.90;91.80;;;;;;5024022;28;20072;-73
2023/10/07 08:35:44;;;;;;;661.33;622.27;;;17.90;92.00;;;;;;5046529;28;20044;-73
2023/10/07 08:38:20;;;;;;;632.50;597.43;;;18.00;91.70;;;;;;5043776;28;20045;-73
2023/10/07 08:41:04;;;;;;;706.17;654.03;;;18.00;91.80;;;;;;5044189;28;20111;-73
2023/10/07 08:43:43;;;;;;;625.30;589.67;;;18.00;91.10;;;;;;5032345;28;20043;-74
2023/10/07 08:46:15;;;;;;;608.30;573.63;;;18.10;90.70;;;;;;5047390;28;20282;-74
2023/10/07 08:48:49;;;;;;;821.30;726.73;;;18.10;90.70;;;;;;5050444;28;20097;-74
2023/10/07 08:51:24;;;;;;;847.97;761.57;;;18.20;89.40;;;;;;5032118;28;20530;-73
2023/10/07 08:54:05;;;;;;;807.95;727.10;;;18.30;88.80;;;;;;5030471;28;20048;-74
2023/10/07 08:56:36;;;;;;;717.03;667.37;;;18.40;88.60;;;;;;5047913;28;20043;-74
2023/10/07 08:59:07;;;;;;;646.03;607.57;;;18.50;88.70;;;;;;5045511;28;20116;-74
2023/10/07 09:01:36;;;;;;;744.67;692.17;;;18.60;88.00;;;;;;5033310;28;20129;-74
2023/10/07 09:04:07;;;;;;;702.93;655.73;;;18.60;87.10;;;;;;5031978;28;20044;-73
2023/10/07 09:06:37;;;;;;;734.97;682.43;;;18.70;86.90;;;;;;5035112;28;20040;-74
2023/10/07 09:09:06;;;;;;;711.40;664.40;;;18.70;86.30;;;;;;5050065;28;20109;-73
2023/10/07 09:11:36;;;;;;;748.20;699.03;;;18.70;86.10;;;;;;5028658;28;20124;-74
2023/10/07 09:14:18;;;;;;;776.53;722.03;;;18.80;86.70;;;;;;5031325;28;20041;-74
2023/10/07 09:16:46;;;;;;;670.83;629.77;;;18.70;85.40;;;;;;5047022;28;20087;-74
2023/10/07 09:19:19;;;;;;;708.10;659.43;;;18.80;85.70;;;;;;5046942;28;20041;-74
2023/10/07 09:21:51;;;;;;;675.17;635.67;;;18.80;85.50;;;;;;5044162;28;20055;-74
2023/10/07 09:24:23;;;;;;;788.53;709.23;;;18.80;84.70;;;;;;5026701;28;20029;-74
2023/10/07 09:26:56;;;;;;;669.00;631.70;;;18.80;84.40;;;;;;5043993;28;20171;-73
2023/10/07 09:29:32;;;;;;;718.70;674.33;;;18.80;85.00;;;;;;5051247;28;20524;-74
2023/10/07 09:32:16;;;;;;;775.33;726.63;;;18.80;85.20;;;;;;5032027;28;20042;-74
2023/10/07 09:34:44;;;;;;;729.87;675.43;;;18.90;85.40;;;;;;5044857;28;20150;-74
2023/10/07 09:37:20;;;;;;;678.30;639.83;;;18.90;84.90;;;;;;5048270;28;20188;-74
2023/10/07 09:39:53;;;;;;;803.20;745.20;;;19.00;84.80;;;;;;5049336;28;20135;-75
2023/10/07 09:42:26;;;;;;;634.93;598.73;;;19.10;84.20;;;;;;5047207;28;20040;-74
2023/10/07 09:47:37;;;;;;;727.33;680.93;;;19.10;82.70;;;;;;5046089;28;20044;-71
2023/10/07 09:50:10;;;;;;;855.63;776.27;;;19.10;82.30;;;;;;5044938;28;20118;-74
2023/10/07 09:52:41;;;;;;;1022.47;937.80;;;19.10;82.30;;;;;;5044581;28;20041;-73
2023/10/07 09:55:38;;;;;;;702.77;662.63;;;19.00;81.90;;;;;;5029441;28;20503;-73
2023/10/07 09:58:26;;;;;;;781.80;730.90;;;19.00;81.90;;;;;;5045735;28;20041;-72
2023/10/07 10:01:06;;;;;;;804.37;754.33;;;18.90;82.10;;;;;;5049759;28;20045;-72
2023/10/07 10:03:45;;;;;;;828.23;752.67;;;18.80;82.60;;;;;;5036743;28;20069;-72
2023/10/07 10:06:25;;;;;;;892.30;822.80;;;18.80;81.90;;;;;;5042630;28;20037;-70
2023/10/07 10:08:59;;;;;;;806.17;750.23;;;18.70;82.10;;;;;;5028588;28;20041;-71
2023/10/07 10:11:43;;;;;;;784.72;732.13;;;18.70;82.50;;;;;;5045800;28;20048;-70
2023/10/07 10:16:53;;;;;;;854.83;783.43;;;18.80;82.40;;;;;;5041861;28;20076;-70
2023/10/07 10:19:56;;;;;;;842.07;775.23;;;18.90;82.30;;;;;;5021803;28;20448;-73
2023/10/07 10:22:23;;;;;;;801.70;742.23;;;19.00;81.00;;;;;;5020034;28;20045;-73
2023/10/07 10:24:57;;;;;;;1053.83;878.57;;;19.00;80.90;;;;;;5041522;28;20052;-73
2023/10/07 10:27:25;;;;;;;769.73;719.30;;;19.00;79.80;;;;;;5027341;28;20037;-73
2023/10/07 10:30:24;;;;;;;750.90;705.33;;;19.10;80.40;;;;;;5038680;28;20037;-74
2023/10/07 10:32:57;;;;;;;841.63;775.70;;;19.10;80.40;;;;;;5055171;28;20056;-74
2023/10/07 10:35:24;;;;;;;773.53;725.63;;;19.20;80.70;;;;;;5049817;28;20049;-74
2023/10/07 10:37:55;;;;;;;1638.77;923.80;;;19.20;80.90;;;;;;5042520;28;20056;-74
2023/10/07 10:40:21;;;;;;;780.17;732.33;;;19.30;79.50;;;;;;5033918;28;20051;-74
2023/10/07 10:42:48;;;;;;;813.33;759.07;;;19.30;80.30;;;;;;5049028;28;20032;-74
2023/10/07 10:45:22;;;;;;;801.17;748.50;;;19.40;80.10;;;;;;5032252;28;20037;-74
2023/10/07 10:47:56;;;;;;;;;;;19.50;79.70;;;;;;5054525;28;20130;-74
2023/10/07 10:50:28;;;;;;;836.03;772.07;;;19.50;79.30;;;;;;5055575;28;19951;-74
2023/10/07 10:52:56;;;;;;;812.87;754.60;;;19.50;79.40;;;;;;5036585;28;20047;-74
2023/10/07 10:55:25;;;;;;;789.20;740.20;;;19.50;79.30;;;;;;5055876;28;20044;-75
2023/10/07 10:57:54;;;;;;;840.93;779.47;;;19.60;79.80;;;;;;5050239;28;20041;-74
2023/10/07 11:00:23;;;;;;;785.37;736.57;;;19.60;79.60;;;;;;5051998;28;20041;-74
2023/10/07 11:02:51;;;;;;;840.00;782.03;;;19.60;78.70;;;;;;5038791;28;20041;-74
2023/10/07 11:05:18;;;;;;;901.63;816.77;;;19.60;78.80;;;;;;5029685;28;20401;-74
2023/10/07 11:07:49;;;;;;;805.83;750.80;;;19.60;78.80;;;;;;5054948;28;20041;-74
2023/10/07 11:10:24;;;;;;;375.47;356.23;;;19.60;78.70;;;;;;5053953;28;20088;-75
2023/10/07 11:12:52;;;;;;;571.80;537.37;;;19.70;78.80;;;;;;5034959;28;20091;-74
2023/10/07 11:15:29;;;;;;;729.07;685.67;;;19.70;78.60;;;;;;5044239;28;20040;-74
2023/10/07 11:18:33;;;;;;;651.80;611.47;;;19.70;78.40;;;;;;5053826;28;20567;-75
2023/10/07 11:20:54;;;;;;;569.30;530.57;;;19.70;78.70;;;;;;5049404;28;20124;-74
2023/10/07 11:23:20;;;;;;;563.57;531.27;;;19.70;78.00;;;;;;5051977;28;20041;-74
2023/10/07 11:25:46;;;;;;;569.07;527.43;;;19.80;78.90;;;;;;5032389;28;20041;-75
2023/10/07 11:28:15;;;;;;;503.77;477.80;;;19.90;78.90;;;;;;5039597;28;20045;-73
2023/10/07 11:30:48;;;;;;;487.50;462.40;;;20.00;78.90;;;;;;5055464;28;20041;-73
2023/10/07 11:33:16;;;;;;;560.53;529.87;;;20.00;78.10;;;;;;5034049;28;20053;-74
2023/10/07 11:35:43;;;;;;;485.20;461.07;;;20.00;77.60;;;;;;5047992;28;20048;-73
2023/10/07 11:38:13;;;;;;;556.27;526.80;;;19.90;78.30;;;;;;5047140;28;20429;-74
2023/10/07 11:40:39;;;;;;;557.33;522.73;;;19.90;78.90;;;;;;5048678;28;20056;-74
2023/10/07 11:43:08;;;;;;;558.43;517.07;;;19.80;78.10;;;;;;5049058;28;20400;-74
2023/10/07 11:45:36;;;;;;;606.17;560.90;;;19.80;78.10;;;;;;5038516;28;20045;-74
2023/10/07 11:48:08;;;;;;;458.40;429.83;;;19.70;78.30;;;;;;5032033;28;20474;-74
2023/10/07 11:50:37;;;;;;;658.47;593.87;;;19.70;78.20;;;;;;5038691;28;20143;-75
2023/10/07 11:53:04;;;;;;;750.17;687.67;;;19.70;78.10;;;;;;5037654;28;20044;-74
2023/10/07 11:55:31;;;;;;;425.43;404.73;;;19.80;77.90;;;;;;5058395;28;20124;-75
2023/10/07 11:58:00;;;;;;;142.53;134.97;;;19.80;77.80;;;;;;5050626;28;20044;-74
2023/10/07 12:00:34;;;;;;;455.10;432.13;;;19.90;78.50;;;;;;5051474;28;20052;-74
2023/10/07 12:03:04;;;;;;;571.60;538.80;;;20.00;78.30;;;;;;5032263;28;20489;-74
2023/10/07 12:05:31;;;;;;;594.23;563.00;;;20.00;78.00;;;;;;5031124;28;20040;-73
2023/10/07 12:08:01;;;;;;;540.57;514.10;;;19.90;77.60;;;;;;5037965;28;20786;-73
2023/10/07 12:10:33;;;;;;;529.63;502.60;;;19.90;78.30;;;;;;5039126;28;20045;-74
2023/10/07 12:13:00;;;;;;;540.97;513.67;;;19.90;78.70;;;;;;5051192;28;20147;-74
2023/10/07 12:15:26;;;;;;;656.80;610.10;;;19.80;78.00;;;;;;5052640;28;20048;-73
2023/10/07 12:17:53;;;;;;;535.20;506.20;;;19.70;77.80;;;;;;5034608;28;20573;-74
2023/10/07 12:20:22;;;;;;;472.07;448.73;;;19.40;78.70;;;;;;5030013;28;20092;-73
2023/10/07 12:22:48;;;;;;;484.40;461.27;;;19.40;79.80;;;;;;5057662;28;20086;-74
2023/10/07 12:25:16;;;;;;;504.80;479.73;;;19.40;79.50;;;;;;5038723;28;20115;-74
2023/10/07 12:27:43;;;;;;;544.33;515.27;;;19.40;79.70;;;;;;5036164;28;20067;-74
2023/10/07 12:30:11;;;;;;;704.50;626.63;;;19.60;79.10;;;;;;5038756;28;20045;-75
2023/10/07 12:32:43;;;;;;;522.83;497.83;;;19.60;78.10;;;;;;5050646;28;20076;-74
2023/10/07 12:35:10;;;;;;;536.00;509.70;;;19.70;78.70;;;;;;5044375;28;20044;-75
2023/10/07 12:37:39;;;;;;;509.40;484.10;;;19.80;78.50;;;;;;5055256;28;20048;-74
2023/10/07 12:40:12;;;;;;;533.73;505.20;;;19.90;78.20;;;;;;5052233;28;20407;-73
2023/10/07 12:42:39;;;;;;;667.07;621.73;;;19.90;77.60;;;;;;5054359;28;20119;-74
2023/10/07 12:45:06;;;;;;;617.73;581.83;;;19.80;77.80;;;;;;5055974;28;20396;-75
2023/10/07 12:47:37;;;;;;;622.33;587.87;;;19.80;78.00;;;;;;5050788;28;20040;-74
2023/10/07 12:52:52;;;;;;;507.45;483.40;;;19.90;78.40;;;;;;5052691;28;20040;-72
2023/10/07 12:55:18;;;;;;;509.17;484.17;;;19.80;79.00;;;;;;5052086;28;20101;-72
2023/10/07 12:57:44;;;;;;;493.30;469.43;;;19.80;78.50;;;;;;5050345;28;20060;-73
2023/10/07 13:00:28;;;;;;;570.17;535.60;;;19.70;78.20;;;;;;5048338;28;20049;-73
2023/10/07 13:02:54;;;;;;;475.87;453.67;;;19.50;78.70;;;;;;5046492;28;20080;-72
2023/10/07 13:05:24;;;;;;;517.20;491.47;;;19.40;79.30;;;;;;5052000;28;20510;-73
2023/10/07 13:07:51;;;;;;;634.30;590.23;;;19.20;80.00;;;;;;5047060;28;20047;-73
2023/10/07 13:10:17;;;;;;;576.17;540.03;;;19.10;80.20;;;;;;5049510;28;20575;-72
2023/10/07 13:12:49;;;;;;;348.87;331.27;;;19.00;80.60;;;;;;5046951;28;20389;-72